Fairdale, ND (58229)

8:44 AM CDT on April 19, 2015 (GMT -0500)
RAWS | | Change Station
CLOSE
Current Station
Personal Weather Station
Location: Hampden, ND
Elevation: 1582 ft
Nearby Weather Stations

Elev 1582 ft 48.53 °N, 98.62 °W | Updated 46 minutes ago

Mostly Cloudy
Mostly Cloudy
40 °F
Feels Like 31 °F
N
17
Wind Variable Wind from NW
Gusts 25.0 mph

Today
High -- | Low -- °F
--% Chance of Precip.
Yesterday
High -- | Low -- °F
Precip. -- in
6:35 AM 8:29 PM
New Moon, 1% visible
Pressure 29.75 in
Visibility 3.0 miles
Clouds Scattered Clouds 600 ft
Mostly Cloudy 1500 ft
Overcast 2600 ft
Windchill 31 °F
Dew Point 38 °F
Humidity 94%
Rainfall in
Snow Depth Not available.
UV 0 out of 12
Pollen 3.60 out of 12
Air Quality Not available.
Flu Activity Regional
METAR KD55 191335Z AUTO 30018KT 3SM -RA SCT006 BKN015 OVC026 05/04 A2975 RMK AO2

More Conditions Fewer Conditions

Pressure 29.75 in
Visibility 3.0 miles
Clouds Scattered Clouds 600 ft
Mostly Cloudy 1500 ft
Overcast 2600 ft
Windchill 31 °F
Dew Point 38 °F
Humidity 94%
Rainfall in
Snow Depth Not available.
UV 0 out of 12
Pollen 3.60 out of 12
Air Quality Not available.
Flu Activity Regional
METAR KD55 191335Z AUTO 30018KT 3SM -RA SCT006 BKN015 OVC026 05/04 A2975 RMK AO2

More Conditions Fewer Conditions

10-Day Weather Forecast

Almanac

Astronomy

Apr. 19, 2015 Rise Set
Actual Time
Civil Twilight
Nautical Twilight
Astronomical Twilight
Moon
Length of Visible Light
Length of Day
Tomorrow will be .
, % of the Moon is Illuminated

Today's Extremes

State Highs State Lows

Community

WunderPhotos

Upload Photos

1,814,795 photos uploaded!

WunderBlogs® & News

Nearby

Air Quality

  Air Quality AQ Index Pollutant
Not available.

Snow Depth

Station Depth Elevation

Earthquake Activity

City Distance Mag. Time & Date
Minimum magnitude displayed is 2.5.

Coastal Water Temperatures

Place Temperature

Stations

Nearby Weather Stations

Station Location Temp. Windchill Dew Point Humidity Wind Precip. Elev Updated Type